ASY66 LIPA-EGVN
Flight info
| Callsign | ASY66 |
|---|---|
| Flight time | 1h 43m |
| Altitude | 39000 |
| Route | VIC DCT IBUGO DCT ADOSA DCT IDREK DCT NEVNI DCT OSKOR DCT PEXUG DCT DESIP DCT SRN/N0450F400 DCT BAVMI DCT OMETO DCT TERSI DCT AOSTA DCT BANKO DCT GIRKU DCT MOKIP DCT AVLON DCT OKASI DCT TABOV DCT DVL DCT SITET DCT INKEK DCT EVEXU DCT GWC DCT NIBDA DCT VOUGA DCT NUBRI DCT REFQI DCT SAWPE DCT OKSAW |
| Aircraft | F35/M-SDE3RV/LB1 |
Departure
| Time | 2026-05-05 06:42 |
|---|---|
| Airport | Aviano Air Base (LIPA) |
Arrival
| Time | 2026-05-05 08:25 |
|---|---|
| Airport | RAF Brize Norton (EGVN) |
| Time | Latitude | Longitude | Altitude | Speed | Heading |
|---|---|---|---|---|---|
| 2026-05-05 06:32 | 46.02151 | 12.58899 | 337 ft | 0 kts | 126° |
| 2026-05-05 06:37 | 46.02146 | 12.58908 | 337 ft | 5 kts | 126° |
| 2026-05-05 06:37 | 46.02142 | 12.58923 | 337 ft | 2 kts | 93° |
| 2026-05-05 06:37 | 46.02189 | 12.58950 | 337 ft | 14 kts | 316° |
| 2026-05-05 06:38 | 46.02257 | 12.58746 | 335 ft | 31 kts | 291° |
| 2026-05-05 06:38 | 46.02336 | 12.58718 | 336 ft | 17 kts | 49° |
| 2026-05-05 06:38 | 46.02448 | 12.58892 | 337 ft | 30 kts | 45° |
| 2026-05-05 06:38 | 46.02592 | 12.59120 | 334 ft | 36 kts | 47° |
| 2026-05-05 06:39 | 46.02745 | 12.59365 | 335 ft | 34 kts | 60° |
| 2026-05-05 06:39 | 46.02894 | 12.59606 | 334 ft | 31 kts | 51° |
| 2026-05-05 06:39 | 46.03039 | 12.59821 | 336 ft | 29 kts | 42° |
| 2026-05-05 06:39 | 46.03164 | 12.60030 | 337 ft | 27 kts | 47° |
| 2026-05-05 06:40 | 46.03284 | 12.60223 | 336 ft | 25 kts | 49° |
| 2026-05-05 06:40 | 46.03400 | 12.60408 | 336 ft | 24 kts | 50° |
| 2026-05-05 06:40 | 46.03512 | 12.60580 | 336 ft | 23 kts | 45° |
| 2026-05-05 06:40 | 46.03621 | 12.60737 | 334 ft | 21 kts | 49° |
| 2026-05-05 06:41 | 46.03718 | 12.60889 | 337 ft | 20 kts | 58° |
| 2026-05-05 06:41 | 46.03801 | 12.60967 | 333 ft | 13 kts | 338° |
| 2026-05-05 06:41 | 46.03845 | 12.60841 | 336 ft | 25 kts | 239° |
| 2026-05-05 06:41 | 46.03405 | 12.60123 | 340 ft | 184 kts | 228° |
| 2026-05-05 06:42 | 46.02411 | 12.58575 | 1770 ft | 239 kts | 227° |
| 2026-05-05 06:42 | 46.01052 | 12.56508 | 4364 ft | 331 kts | 224° |
| 2026-05-05 06:42 | 45.99221 | 12.53930 | 7867 ft | 414 kts | 224° |
| 2026-05-05 06:42 | 45.97132 | 12.50564 | 12402 ft | 480 kts | 230° |
| 2026-05-05 06:43 | 45.95661 | 12.48014 | 15727 ft | 504 kts | 229° |
| 2026-05-05 06:43 | 45.93400 | 12.44062 | 20727 ft | 504 kts | 233° |
| 2026-05-05 06:43 | 45.91642 | 12.40618 | 24906 ft | 486 kts | 235° |
| 2026-05-05 06:43 | 45.89953 | 12.36614 | 29563 ft | 474 kts | 242° |
| 2026-05-05 06:44 | 45.88477 | 12.32300 | 34208 ft | 470 kts | 243° |
| 2026-05-05 06:44 | 45.86903 | 12.27915 | 35708 ft | 501 kts | 239° |
| 2026-05-05 06:44 | 45.85135 | 12.23634 | 36408 ft | 490 kts | 240° |
| 2026-05-05 06:44 | 45.83543 | 12.19309 | 37146 ft | 487 kts | 242° |
| 2026-05-05 06:45 | 45.81931 | 12.15055 | 37923 ft | 484 kts | 240° |
| 2026-05-05 06:45 | 45.80322 | 12.10909 | 38542 ft | 484 kts | 241° |
| 2026-05-05 06:45 | 45.78710 | 12.06600 | 38793 ft | 484 kts | 241° |
| 2026-05-05 06:45 | 45.77079 | 12.02361 | 38898 ft | 483 kts | 240° |
| 2026-05-05 06:46 | 45.75472 | 11.98166 | 38949 ft | 483 kts | 241° |
| 2026-05-05 06:46 | 45.72259 | 11.89773 | 38994 ft | 482 kts | 241° |
| 2026-05-05 06:47 | 45.69030 | 11.81362 | 39003 ft | 481 kts | 240° |
| 2026-05-05 06:47 | 45.65836 | 11.73079 | 39005 ft | 482 kts | 242° |
| 2026-05-05 06:47 | 45.64677 | 11.68917 | 39018 ft | 482 kts | 255° |
| 2026-05-05 06:48 | 45.64024 | 11.64194 | 39016 ft | 487 kts | 261° |
| 2026-05-05 06:48 | 45.63864 | 11.54533 | 39013 ft | 489 kts | 272° |
| 2026-05-05 06:49 | 45.63995 | 11.44820 | 39001 ft | 488 kts | 269° |
| 2026-05-05 06:49 | 45.64138 | 11.35113 | 38989 ft | 488 kts | 268° |
| 2026-05-05 06:50 | 45.64249 | 11.25427 | 38984 ft | 489 kts | 268° |
| 2026-05-05 06:50 | 45.64332 | 11.15685 | 38992 ft | 490 kts | 269° |
| 2026-05-05 06:51 | 45.64407 | 11.06371 | 38985 ft | 490 kts | 268° |
| 2026-05-05 06:51 | 45.64501 | 10.96636 | 38993 ft | 491 kts | 268° |
| 2026-05-05 06:52 | 45.64575 | 10.86864 | 38989 ft | 491 kts | 268° |
| 2026-05-05 06:52 | 45.64634 | 10.78744 | 38985 ft | 492 kts | 268° |
| 2026-05-05 06:53 | 45.64700 | 10.68954 | 38991 ft | 492 kts | 268° |
| 2026-05-05 06:53 | 45.64756 | 10.59120 | 38987 ft | 492 kts | 268° |
| 2026-05-05 06:54 | 45.64804 | 10.49321 | 38994 ft | 493 kts | 268° |
| 2026-05-05 06:54 | 45.64844 | 10.39438 | 38994 ft | 493 kts | 268° |
| 2026-05-05 06:55 | 45.64877 | 10.29648 | 38981 ft | 492 kts | 268° |
| 2026-05-05 06:55 | 45.64902 | 10.19892 | 38974 ft | 492 kts | 268° |
| 2026-05-05 06:56 | 45.64922 | 10.10085 | 38986 ft | 493 kts | 270° |
| 2026-05-05 06:56 | 45.65019 | 10.00293 | 39003 ft | 492 kts | 269° |
| 2026-05-05 06:57 | 45.65126 | 9.90526 | 38996 ft | 491 kts | 269° |
| 2026-05-05 06:57 | 45.65208 | 9.80816 | 38996 ft | 490 kts | 269° |
| 2026-05-05 06:58 | 45.65277 | 9.71080 | 39006 ft | 490 kts | 269° |
| 2026-05-05 06:58 | 45.65344 | 9.61315 | 38999 ft | 488 kts | 265° |
| 2026-05-05 06:59 | 45.65202 | 9.51601 | 39142 ft | 488 kts | 267° |
| 2026-05-05 06:59 | 45.65041 | 9.41915 | 39129 ft | 488 kts | 267° |
| 2026-05-05 07:00 | 45.64897 | 9.32170 | 39100 ft | 487 kts | 266° |
| 2026-05-05 07:00 | 45.64749 | 9.22421 | 38990 ft | 487 kts | 266° |
| 2026-05-05 07:01 | 45.64532 | 9.12827 | 38985 ft | 486 kts | 269° |
| 2026-05-05 07:01 | 45.64733 | 9.03299 | 38986 ft | 487 kts | 270° |
| 2026-05-05 07:02 | 45.65325 | 8.94148 | 39000 ft | 489 kts | 278° |
| 2026-05-05 07:02 | 45.66249 | 8.84671 | 38998 ft | 489 kts | 275° |
| 2026-05-05 07:03 | 45.67177 | 8.75202 | 38996 ft | 488 kts | 274° |
| 2026-05-05 07:03 | 45.68080 | 8.65585 | 38997 ft | 488 kts | 275° |
| 2026-05-05 07:04 | 45.68972 | 8.55886 | 38995 ft | 488 kts | 274° |
| 2026-05-05 07:04 | 45.69858 | 8.46249 | 39000 ft | 489 kts | 274° |
| 2026-05-05 07:05 | 45.70746 | 8.36621 | 39001 ft | 488 kts | 274° |
| 2026-05-05 07:05 | 45.71627 | 8.26940 | 39022 ft | 489 kts | 274° |
| 2026-05-05 07:06 | 45.72502 | 8.17282 | 39019 ft | 489 kts | 274° |
| 2026-05-05 07:06 | 45.73370 | 8.07631 | 39031 ft | 488 kts | 274° |
| 2026-05-05 07:07 | 45.74223 | 7.97999 | 39032 ft | 489 kts | 274° |
| 2026-05-05 07:07 | 45.75071 | 7.88332 | 39051 ft | 488 kts | 274° |
| 2026-05-05 07:08 | 45.75913 | 7.78669 | 39035 ft | 489 kts | 274° |
| 2026-05-05 07:08 | 45.76753 | 7.68942 | 39012 ft | 489 kts | 274° |
| 2026-05-05 07:09 | 45.77569 | 7.59331 | 39039 ft | 489 kts | 274° |
| 2026-05-05 07:09 | 45.78388 | 7.49643 | 39052 ft | 489 kts | 274° |
| 2026-05-05 07:10 | 45.79192 | 7.39967 | 39059 ft | 488 kts | 274° |
| 2026-05-05 07:10 | 45.79994 | 7.30276 | 39050 ft | 490 kts | 273° |
| 2026-05-05 07:11 | 45.80781 | 7.20611 | 39068 ft | 486 kts | 273° |
| 2026-05-05 07:11 | 45.81572 | 7.10928 | 39014 ft | 491 kts | 274° |
| 2026-05-05 07:12 | 45.82744 | 7.01429 | 39004 ft | 493 kts | 282° |
| 2026-05-05 07:12 | 45.84816 | 6.92014 | 38998 ft | 495 kts | 281° |
| 2026-05-05 07:13 | 45.86739 | 6.82530 | 38957 ft | 495 kts | 283° |
| 2026-05-05 07:13 | 45.88645 | 6.73103 | 38946 ft | 496 kts | 283° |
| 2026-05-05 07:14 | 45.90582 | 6.63601 | 38954 ft | 496 kts | 282° |
| 2026-05-05 07:14 | 45.92504 | 6.54126 | 38939 ft | 496 kts | 282° |
| 2026-05-05 07:15 | 45.94430 | 6.44553 | 38939 ft | 497 kts | 282° |
| 2026-05-05 07:15 | 45.96344 | 6.34999 | 38934 ft | 498 kts | 282° |
| 2026-05-05 07:16 | 45.98254 | 6.25423 | 38930 ft | 498 kts | 282° |
| 2026-05-05 07:16 | 46.00159 | 6.15835 | 38914 ft | 499 kts | 282° |
| 2026-05-05 07:17 | 46.02060 | 6.06211 | 38899 ft | 500 kts | 282° |
| 2026-05-05 07:17 | 46.03951 | 5.96589 | 38907 ft | 500 kts | 283° |
| 2026-05-05 07:18 | 46.06807 | 5.87429 | 38923 ft | 509 kts | 295° |
| 2026-05-05 07:18 | 46.10861 | 5.78993 | 38916 ft | 515 kts | 303° |
| 2026-05-05 07:19 | 46.14952 | 5.70628 | 38905 ft | 514 kts | 302° |
| 2026-05-05 07:19 | 46.19121 | 5.62199 | 38886 ft | 513 kts | 301° |
| 2026-05-05 07:20 | 46.23265 | 5.53802 | 38877 ft | 514 kts | 301° |
| 2026-05-05 07:20 | 46.27244 | 5.45671 | 38877 ft | 514 kts | 301° |
| 2026-05-05 07:21 | 46.30691 | 5.38607 | 38877 ft | 514 kts | 301° |
| 2026-05-05 07:21 | 46.34818 | 5.30142 | 38871 ft | 515 kts | 301° |
| 2026-05-05 07:22 | 46.38931 | 5.21675 | 38867 ft | 515 kts | 301° |
| 2026-05-05 07:22 | 46.43060 | 5.13241 | 38902 ft | 517 kts | 306° |
| 2026-05-05 07:23 | 46.48073 | 5.05668 | 38888 ft | 523 kts | 316° |
| 2026-05-05 07:23 | 46.53922 | 4.99303 | 38879 ft | 526 kts | 318° |
| 2026-05-05 07:24 | 46.59675 | 4.92735 | 38876 ft | 527 kts | 320° |
| 2026-05-05 07:24 | 46.65456 | 4.86163 | 38871 ft | 526 kts | 319° |
| 2026-05-05 07:25 | 46.71243 | 4.79616 | 38872 ft | 527 kts | 318° |
| 2026-05-05 07:25 | 46.76991 | 4.73089 | 38863 ft | 527 kts | 319° |
| 2026-05-05 07:26 | 46.82768 | 4.66494 | 38867 ft | 527 kts | 319° |
| 2026-05-05 07:26 | 46.88545 | 4.59886 | 38871 ft | 527 kts | 319° |
| 2026-05-05 07:27 | 46.94311 | 4.53274 | 38875 ft | 527 kts | 318° |
| 2026-05-05 07:27 | 47.00077 | 4.46642 | 38899 ft | 528 kts | 319° |
| 2026-05-05 07:28 | 47.05848 | 4.39985 | 38874 ft | 527 kts | 319° |
| 2026-05-05 07:28 | 47.11611 | 4.33320 | 38886 ft | 527 kts | 319° |
| 2026-05-05 07:29 | 47.17365 | 4.26645 | 38864 ft | 527 kts | 319° |
| 2026-05-05 07:29 | 47.23113 | 4.19958 | 38857 ft | 527 kts | 319° |
| 2026-05-05 07:30 | 47.28860 | 4.13255 | 38856 ft | 527 kts | 319° |
| 2026-05-05 07:30 | 47.37461 | 4.03185 | 38860 ft | 526 kts | 319° |
| 2026-05-05 07:31 | 47.43195 | 3.96449 | 38851 ft | 526 kts | 319° |
| 2026-05-05 07:31 | 47.48884 | 3.89744 | 38846 ft | 526 kts | 319° |
| 2026-05-05 07:32 | 47.54556 | 3.82798 | 38850 ft | 524 kts | 313° |
| 2026-05-05 07:32 | 47.59469 | 3.74886 | 38858 ft | 520 kts | 303° |
| 2026-05-05 07:33 | 47.63718 | 3.66296 | 38849 ft | 521 kts | 306° |
| 2026-05-05 07:33 | 47.68077 | 3.57739 | 38848 ft | 520 kts | 305° |
| 2026-05-05 07:34 | 47.72460 | 3.49183 | 38848 ft | 520 kts | 304° |
| 2026-05-05 07:34 | 47.76829 | 3.40602 | 38847 ft | 520 kts | 304° |
| 2026-05-05 07:35 | 47.81187 | 3.31986 | 38846 ft | 521 kts | 305° |
| 2026-05-05 07:35 | 47.85533 | 3.23377 | 38844 ft | 521 kts | 304° |
| 2026-05-05 07:36 | 47.89892 | 3.14722 | 38844 ft | 521 kts | 304° |
| 2026-05-05 07:36 | 47.94235 | 3.06068 | 38851 ft | 522 kts | 304° |
| 2026-05-05 07:37 | 47.98582 | 2.97375 | 38851 ft | 522 kts | 304° |
| 2026-05-05 07:37 | 48.02916 | 2.88683 | 38851 ft | 522 kts | 304° |
| 2026-05-05 07:38 | 48.07225 | 2.79914 | 38847 ft | 523 kts | 304° |
| 2026-05-05 07:38 | 48.11610 | 2.71343 | 38859 ft | 523 kts | 304° |
| 2026-05-05 07:39 | 48.16006 | 2.62627 | 38863 ft | 524 kts | 305° |
| 2026-05-05 07:39 | 48.20390 | 2.53896 | 38849 ft | 524 kts | 305° |
| 2026-05-05 07:40 | 48.24770 | 2.45176 | 38850 ft | 525 kts | 305° |
| 2026-05-05 07:40 | 48.29159 | 2.36410 | 38842 ft | 525 kts | 305° |
| 2026-05-05 07:41 | 48.33568 | 2.27567 | 38845 ft | 525 kts | 305° |
| 2026-05-05 07:41 | 48.37830 | 2.18991 | 38844 ft | 526 kts | 305° |
| 2026-05-05 07:42 | 48.42188 | 2.10204 | 38791 ft | 503 kts | 304° |
| 2026-05-05 07:42 | 48.46465 | 2.01643 | 38878 ft | 533 kts | 310° |
| 2026-05-05 07:43 | 48.48978 | 1.97269 | 38840 ft | 572 kts | 309° |
| 2026-05-05 07:43 | 48.51453 | 1.92726 | 38889 ft | 549 kts | 307° |
| 2026-05-05 07:43 | 48.53590 | 1.88716 | 39007 ft | 535 kts | 307° |
| 2026-05-05 07:43 | 48.55852 | 1.84557 | 38922 ft | 522 kts | 308° |
| 2026-05-05 07:44 | 48.58263 | 1.80205 | 38878 ft | 547 kts | 308° |
| 2026-05-05 07:44 | 48.60708 | 1.75865 | 38860 ft | 553 kts | 309° |
| 2026-05-05 07:44 | 48.65818 | 1.67028 | 38856 ft | 556 kts | 310° |
| 2026-05-05 07:45 | 48.71023 | 1.58333 | 38859 ft | 558 kts | 311° |
| 2026-05-05 07:45 | 48.76352 | 1.49729 | 38868 ft | 559 kts | 312° |
| 2026-05-05 07:46 | 48.81735 | 1.41330 | 38876 ft | 559 kts | 313° |
| 2026-05-05 07:46 | 48.87257 | 1.32997 | 38881 ft | 560 kts | 314° |
| 2026-05-05 07:47 | 48.92303 | 1.24044 | 38936 ft | 552 kts | 292° |
| 2026-05-05 07:47 | 48.93531 | 1.18505 | 38394 ft | 555 kts | 277° |
| 2026-05-05 07:47 | 48.94178 | 1.12715 | 37589 ft | 554 kts | 282° |
| 2026-05-05 07:48 | 48.95377 | 1.07185 | 36882 ft | 555 kts | 290° |
| 2026-05-05 07:48 | 48.97093 | 1.01745 | 36129 ft | 557 kts | 295° |
| 2026-05-05 07:48 | 48.98967 | 0.96597 | 35411 ft | 559 kts | 297° |
| 2026-05-05 07:48 | 49.01161 | 0.91628 | 34719 ft | 563 kts | 305° |
| 2026-05-05 07:49 | 49.03651 | 0.86962 | 34018 ft | 566 kts | 307° |
| 2026-05-05 07:49 | 49.06067 | 0.82243 | 33234 ft | 565 kts | 302° |
| 2026-05-05 07:49 | 49.08397 | 0.77393 | 32443 ft | 567 kts | 305° |
| 2026-05-05 07:49 | 49.10790 | 0.72676 | 31681 ft | 568 kts | 304° |
| 2026-05-05 07:50 | 49.13172 | 0.67770 | 30924 ft | 569 kts | 305° |
| 2026-05-05 07:50 | 49.15533 | 0.63014 | 30194 ft | 571 kts | 306° |
| 2026-05-05 07:50 | 49.17940 | 0.58121 | 29381 ft | 572 kts | 305° |
| 2026-05-05 07:50 | 49.20335 | 0.53231 | 28559 ft | 573 kts | 306° |
| 2026-05-05 07:51 | 49.22739 | 0.48344 | 27752 ft | 576 kts | 306° |
| 2026-05-05 07:51 | 49.25142 | 0.43420 | 26972 ft | 577 kts | 306° |
| 2026-05-05 07:51 | 49.27548 | 0.38502 | 26211 ft | 579 kts | 306° |
| 2026-05-05 07:51 | 49.30081 | 0.33717 | 25480 ft | 581 kts | 315° |
| 2026-05-05 07:52 | 49.33298 | 0.29942 | 24791 ft | 585 kts | 331° |
| 2026-05-05 07:52 | 49.37060 | 0.27574 | 24121 ft | 585 kts | 345° |
| 2026-05-05 07:52 | 49.41038 | 0.26155 | 23432 ft | 587 kts | 349° |
| 2026-05-05 07:52 | 49.45046 | 0.24995 | 22621 ft | 588 kts | 351° |
| 2026-05-05 07:53 | 49.49132 | 0.23887 | 21821 ft | 589 kts | 351° |
| 2026-05-05 07:53 | 49.53106 | 0.22772 | 21054 ft | 590 kts | 348° |
| 2026-05-05 07:53 | 49.57079 | 0.21086 | 20306 ft | 591 kts | 344° |
| 2026-05-05 07:53 | 49.61077 | 0.19492 | 19562 ft | 577 kts | 348° |
| 2026-05-05 07:54 | 49.64981 | 0.17995 | 18850 ft | 554 kts | 345° |
| 2026-05-05 07:54 | 49.68632 | 0.16495 | 18125 ft | 557 kts | 347° |
| 2026-05-05 07:54 | 49.72422 | 0.15041 | 17318 ft | 561 kts | 346° |
| 2026-05-05 07:54 | 49.76186 | 0.13560 | 16536 ft | 561 kts | 349° |
| 2026-05-05 07:55 | 49.80059 | 0.12910 | 15778 ft | 559 kts | 1° |
| 2026-05-05 07:55 | 49.82674 | 0.13277 | 15294 ft | 559 kts | 12° |
| 2026-05-05 07:55 | 49.86181 | 0.15148 | 14629 ft | 558 kts | 28° |
| 2026-05-05 07:55 | 49.89250 | 0.18526 | 13973 ft | 557 kts | 45° |
| 2026-05-05 07:56 | 49.92241 | 0.25220 | 12967 ft | 558 kts | 68° |
| 2026-05-05 07:56 | 49.93021 | 0.29081 | 12471 ft | 559 kts | 79° |
| 2026-05-05 07:56 | 49.93234 | 0.34969 | 11743 ft | 518 kts | 96° |
| 2026-05-05 07:56 | 49.92349 | 0.39938 | 11311 ft | 445 kts | 116° |
| 2026-05-05 07:57 | 49.90619 | 0.43559 | 11097 ft | 406 kts | 134° |
| 2026-05-05 07:57 | 49.88524 | 0.46509 | 10992 ft | 405 kts | 139° |
| 2026-05-05 07:57 | 49.86169 | 0.48896 | 10539 ft | 403 kts | 157° |
| 2026-05-05 07:57 | 49.83452 | 0.49725 | 9862 ft | 404 kts | 180° |
| 2026-05-05 07:58 | 49.80676 | 0.48799 | 9110 ft | 405 kts | 204° |
| 2026-05-05 07:58 | 49.78428 | 0.46321 | 8496 ft | 406 kts | 228° |
| 2026-05-05 07:58 | 49.76973 | 0.42597 | 8210 ft | 405 kts | 252° |
| 2026-05-05 07:58 | 49.76585 | 0.38309 | 8087 ft | 405 kts | 276° |
| 2026-05-05 07:59 | 49.77236 | 0.34105 | 8022 ft | 402 kts | 292° |
| 2026-05-05 07:59 | 49.78326 | 0.30130 | 7975 ft | 400 kts | 297° |
| 2026-05-05 07:59 | 49.79582 | 0.26276 | 7950 ft | 399 kts | 300° |
| 2026-05-05 07:59 | 49.80942 | 0.22562 | 7940 ft | 398 kts | 303° |
| 2026-05-05 08:00 | 49.82417 | 0.18924 | 7929 ft | 397 kts | 306° |
| 2026-05-05 08:00 | 49.84238 | 0.15757 | 7980 ft | 394 kts | 320° |
| 2026-05-05 08:00 | 49.86394 | 0.13180 | 8004 ft | 392 kts | 329° |
| 2026-05-05 08:00 | 49.88723 | 0.11006 | 8004 ft | 388 kts | 334° |
| 2026-05-05 08:01 | 49.91148 | 0.09138 | 8005 ft | 388 kts | 337° |
| 2026-05-05 08:01 | 49.93614 | 0.07453 | 8011 ft | 388 kts | 340° |
| 2026-05-05 08:01 | 49.96119 | 0.05868 | 8004 ft | 387 kts | 341° |
| 2026-05-05 08:01 | 49.98641 | 0.04442 | 8014 ft | 386 kts | 347° |
| 2026-05-05 08:02 | 50.01246 | 0.03493 | 8016 ft | 384 kts | 350° |
| 2026-05-05 08:02 | 50.03775 | 0.02564 | 8012 ft | 385 kts | 346° |
| 2026-05-05 08:02 | 50.06407 | 0.01350 | 8012 ft | 385 kts | 342° |
| 2026-05-05 08:02 | 50.08888 | -0.00199 | 8019 ft | 385 kts | 338° |
| 2026-05-05 08:03 | 50.11328 | -0.01934 | 8025 ft | 387 kts | 336° |
| 2026-05-05 08:03 | 50.13750 | -0.03746 | 8021 ft | 387 kts | 335° |
| 2026-05-05 08:03 | 50.16113 | -0.05764 | 8024 ft | 388 kts | 329° |
| 2026-05-05 08:03 | 50.18362 | -0.08112 | 8022 ft | 387 kts | 328° |
| 2026-05-05 08:04 | 50.20661 | -0.10337 | 8021 ft | 387 kts | 332° |
| 2026-05-05 08:04 | 50.22971 | -0.12501 | 8026 ft | 387 kts | 329° |
| 2026-05-05 08:04 | 50.25244 | -0.14776 | 8018 ft | 387 kts | 329° |
| 2026-05-05 08:04 | 50.27526 | -0.16984 | 8027 ft | 387 kts | 330° |
| 2026-05-05 08:05 | 50.29818 | -0.19188 | 8032 ft | 386 kts | 329° |
| 2026-05-05 08:05 | 50.32087 | -0.21423 | 8031 ft | 386 kts | 329° |
| 2026-05-05 08:05 | 50.34373 | -0.23648 | 8039 ft | 386 kts | 330° |
| 2026-05-05 08:05 | 50.36653 | -0.25864 | 8040 ft | 386 kts | 329° |
| 2026-05-05 08:06 | 50.38928 | -0.28100 | 8036 ft | 385 kts | 329° |
| 2026-05-05 08:06 | 50.41099 | -0.30228 | 8034 ft | 386 kts | 329° |
| 2026-05-05 08:06 | 50.43451 | -0.32523 | 8030 ft | 386 kts | 329° |
| 2026-05-05 08:06 | 50.45709 | -0.34743 | 8027 ft | 385 kts | 329° |
| 2026-05-05 08:07 | 50.47915 | -0.36913 | 8028 ft | 386 kts | 329° |
| 2026-05-05 08:07 | 50.49974 | -0.38933 | 8032 ft | 386 kts | 329° |
| 2026-05-05 08:07 | 50.52248 | -0.41172 | 8031 ft | 386 kts | 329° |
| 2026-05-05 08:07 | 50.54526 | -0.43420 | 8028 ft | 386 kts | 329° |
| 2026-05-05 08:08 | 50.56800 | -0.45664 | 8031 ft | 385 kts | 328° |
| 2026-05-05 08:08 | 50.59070 | -0.47905 | 8035 ft | 386 kts | 329° |
| 2026-05-05 08:08 | 50.61319 | -0.50121 | 8041 ft | 386 kts | 329° |
| 2026-05-05 08:08 | 50.63588 | -0.52229 | 8040 ft | 387 kts | 329° |
| 2026-05-05 08:09 | 50.65804 | -0.54628 | 8038 ft | 387 kts | 324° |
| 2026-05-05 08:09 | 50.68010 | -0.57044 | 8037 ft | 386 kts | 327° |
| 2026-05-05 08:09 | 50.70261 | -0.59357 | 8039 ft | 386 kts | 327° |
| 2026-05-05 08:09 | 50.72482 | -0.61742 | 8038 ft | 386 kts | 326° |
| 2026-05-05 08:10 | 50.74713 | -0.64139 | 8043 ft | 386 kts | 326° |
| 2026-05-05 08:10 | 50.76934 | -0.66484 | 8042 ft | 386 kts | 327° |
| 2026-05-05 08:10 | 50.79156 | -0.68858 | 8042 ft | 386 kts | 326° |
| 2026-05-05 08:10 | 50.81378 | -0.71244 | 8043 ft | 386 kts | 326° |
| 2026-05-05 08:11 | 50.83575 | -0.73689 | 8046 ft | 385 kts | 324° |
| 2026-05-05 08:11 | 50.85808 | -0.76025 | 8047 ft | 384 kts | 329° |
| 2026-05-05 08:11 | 50.88106 | -0.78217 | 8044 ft | 384 kts | 328° |
| 2026-05-05 08:11 | 50.90349 | -0.80519 | 8046 ft | 385 kts | 327° |
| 2026-05-05 08:12 | 50.92483 | -0.82684 | 8058 ft | 384 kts | 328° |
| 2026-05-05 08:12 | 50.94816 | -0.84998 | 8059 ft | 384 kts | 328° |
| 2026-05-05 08:12 | 50.97074 | -0.87286 | 8060 ft | 384 kts | 328° |
| 2026-05-05 08:12 | 50.99343 | -0.89493 | 8064 ft | 384 kts | 329° |
| 2026-05-05 08:13 | 51.01617 | -0.91842 | 8063 ft | 384 kts | 326° |
| 2026-05-05 08:13 | 51.03794 | -0.94281 | 8060 ft | 384 kts | 324° |
| 2026-05-05 08:13 | 51.06001 | -0.96578 | 8062 ft | 384 kts | 330° |
| 2026-05-05 08:13 | 51.08358 | -0.98684 | 8063 ft | 383 kts | 330° |
| 2026-05-05 08:14 | 51.10631 | -1.00892 | 8063 ft | 383 kts | 328° |
| 2026-05-05 08:14 | 51.12909 | -1.03115 | 8060 ft | 383 kts | 329° |
| 2026-05-05 08:14 | 51.15198 | -1.05270 | 8065 ft | 382 kts | 329° |
| 2026-05-05 08:14 | 51.17428 | -1.07417 | 8071 ft | 382 kts | 329° |
| 2026-05-05 08:15 | 51.19588 | -1.09510 | 8074 ft | 382 kts | 329° |
| 2026-05-05 08:15 | 51.21864 | -1.11690 | 8076 ft | 382 kts | 329° |
| 2026-05-05 08:15 | 51.24142 | -1.13883 | 8075 ft | 382 kts | 329° |
| 2026-05-05 08:15 | 51.26424 | -1.16092 | 8085 ft | 383 kts | 329° |
| 2026-05-05 08:16 | 51.28707 | -1.18294 | 8069 ft | 383 kts | 329° |
| 2026-05-05 08:16 | 51.30967 | -1.20559 | 8068 ft | 383 kts | 326° |
| 2026-05-05 08:16 | 51.33124 | -1.23086 | 8068 ft | 383 kts | 323° |
| 2026-05-05 08:16 | 51.35210 | -1.25733 | 8064 ft | 384 kts | 321° |
| 2026-05-05 08:17 | 51.37210 | -1.28693 | 8068 ft | 384 kts | 314° |
| 2026-05-05 08:17 | 51.39000 | -1.31896 | 8065 ft | 384 kts | 313° |
| 2026-05-05 08:17 | 51.40850 | -1.34973 | 8070 ft | 383 kts | 316° |
| 2026-05-05 08:17 | 51.41492 | -1.35994 | 8071 ft | 384 kts | 316° |
| 2026-05-05 08:18 | 51.42784 | -1.38113 | 8072 ft | 384 kts | 314° |
| 2026-05-05 08:18 | 51.44597 | -1.41203 | 8070 ft | 384 kts | 314° |
| 2026-05-05 08:18 | 51.46502 | -1.44265 | 8077 ft | 384 kts | 316° |
| 2026-05-05 08:18 | 51.48325 | -1.47369 | 8082 ft | 384 kts | 311° |
| 2026-05-05 08:19 | 51.50065 | -1.50592 | 8090 ft | 366 kts | 313° |
| 2026-05-05 08:19 | 51.51733 | -1.53501 | 7434 ft | 343 kts | 314° |
| 2026-05-05 08:19 | 51.53302 | -1.56248 | 6676 ft | 326 kts | 313° |
| 2026-05-05 08:19 | 51.54764 | -1.58882 | 6072 ft | 307 kts | 313° |
| 2026-05-05 08:20 | 51.56151 | -1.61273 | 5791 ft | 275 kts | 320° |
| 2026-05-05 08:20 | 51.57628 | -1.63033 | 5669 ft | 263 kts | 330° |
| 2026-05-05 08:20 | 51.59218 | -1.64386 | 5627 ft | 259 kts | 338° |
| 2026-05-05 08:20 | 51.60905 | -1.65458 | 5604 ft | 258 kts | 341° |
| 2026-05-05 08:21 | 51.62611 | -1.66359 | 5622 ft | 258 kts | 344° |
| 2026-05-05 08:21 | 51.64346 | -1.67083 | 5637 ft | 257 kts | 351° |
| 2026-05-05 08:21 | 51.66085 | -1.67445 | 5489 ft | 239 kts | 355° |
| 2026-05-05 08:21 | 51.67673 | -1.67564 | 4792 ft | 202 kts | 3° |
| 2026-05-05 08:22 | 51.69024 | -1.67075 | 4051 ft | 194 kts | 23° |
| 2026-05-05 08:22 | 51.70074 | -1.65633 | 3509 ft | 185 kts | 56° |
| 2026-05-05 08:22 | 51.70445 | -1.64066 | 3024 ft | 127 kts | 68° |
| 2026-05-05 08:22 | 51.70654 | -1.63009 | 2870 ft | 177 kts | 68° |
| 2026-05-05 08:23 | 51.71196 | -1.59896 | 3441 ft | 248 kts | 74° |
| 2026-05-05 08:23 | 51.71544 | -1.57143 | 3601 ft | 244 kts | 77° |
| 2026-05-05 08:23 | 51.71744 | -1.55463 | 3367 ft | 213 kts | 75° |
| 2026-05-05 08:23 | 51.72108 | -1.53273 | 2609 ft | 182 kts | 66° |
| 2026-05-05 08:24 | 51.72744 | -1.51730 | 1929 ft | 173 kts | 33° |
| 2026-05-05 08:24 | 51.74033 | -1.51317 | 1416 ft | 214 kts | 348° |
| 2026-05-05 08:24 | 51.75444 | -1.52476 | 1255 ft | 227 kts | 307° |
| 2026-05-05 08:24 | 51.75674 | -1.54559 | 659 ft | 185 kts | 258° |
| 2026-05-05 08:25 | 51.75345 | -1.56336 | 288 ft | 138 kts | 258° |
| 2026-05-05 08:25 | 51.75161 | -1.57410 | 262 ft | 69 kts | 253° |
| 2026-05-05 08:25 | 51.75064 | -1.57959 | 264 ft | 32 kts | 256° |
| 2026-05-05 08:25 | 51.74944 | -1.58228 | 262 ft | 29 kts | 201° |
| 2026-05-05 08:26 | 51.74780 | -1.58364 | 262 ft | 25 kts | 209° |
| 2026-05-05 08:26 | 51.74653 | -1.58435 | 262 ft | 12 kts | 137° |
| 2026-05-05 08:26 | 51.74614 | -1.58330 | 262 ft | 12 kts | 120° |
| 2026-05-05 08:26 | 51.74551 | -1.58138 | 262 ft | 22 kts | 111° |
| 2026-05-05 08:27 | 51.74576 | -1.57922 | 262 ft | 19 kts | 54° |
| 2026-05-05 08:27 | 51.74633 | -1.57775 | 262 ft | 13 kts | 64° |
| 2026-05-05 08:27 | 51.74658 | -1.57719 | 262 ft | 2 kts | 12° |
| 2026-05-05 08:27 | 51.74671 | -1.57724 | 262 ft | 2 kts | 335° |
| 2026-05-05 08:28 | 51.74694 | -1.57735 | 262 ft | 2 kts | 47° |
| 2026-05-05 08:28 | 51.74693 | -1.57726 | 262 ft | 0 kts | 102° |